createdAt,value
2018-05-31T00:00:05.636Z,94.10
2018-05-31T00:02:38.822Z,94.20
2018-05-31T00:05:11.595Z,94.20
2018-05-31T00:07:45.002Z,94.20
2018-05-31T00:10:18.375Z,94.20
2018-05-31T00:12:51.730Z,94.20
2018-05-31T00:15:24.145Z,94.20
2018-05-31T00:17:56.774Z,94.20
2018-05-31T00:20:29.204Z,94.20
2018-05-31T00:23:01.598Z,94.10
2018-05-31T00:25:34.092Z,94.00
2018-05-31T00:28:07.112Z,93.90
2018-05-31T00:30:46.719Z,93.80
2018-05-31T00:33:20.144Z,94.10
2018-05-31T00:35:52.583Z,94.00
2018-05-31T00:38:25.173Z,94.10
2018-05-31T00:40:57.739Z,94.10
2018-05-31T00:43:30.239Z,94.10
2018-05-31T00:46:02.873Z,94.10
2018-05-31T00:48:35.303Z,94.00
2018-05-31T00:51:09.181Z,94.20
2018-05-31T00:53:41.620Z,94.20
2018-05-31T00:56:16.289Z,94.20
2018-05-31T00:58:49.522Z,94.10
2018-05-31T01:01:22.727Z,94.10
2018-05-31T01:03:55.343Z,94.10
2018-05-31T01:06:27.764Z,94.10
2018-05-31T01:09:00.400Z,94.10
2018-05-31T01:11:32.803Z,94.10
2018-05-31T01:14:05.418Z,94.10
2018-05-31T01:16:37.962Z,94.10
2018-05-31T01:19:10.334Z,94.20
2018-05-31T01:21:42.733Z,94.30
2018-05-31T01:24:15.513Z,94.30
2018-05-31T01:26:48.020Z,94.30
2018-05-31T01:29:21.348Z,94.30
2018-05-31T01:31:54.012Z,94.30
2018-05-31T01:34:26.573Z,94.40
2018-05-31T01:36:59.169Z,94.40
2018-05-31T01:39:31.763Z,94.50
2018-05-31T01:42:04.269Z,94.50
2018-05-31T01:44:37.390Z,94.40
2018-05-31T01:47:10.258Z,94.40
2018-05-31T01:49:42.804Z,94.50
2018-05-31T01:52:15.622Z,94.50
2018-05-31T01:54:48.020Z,94.50
2018-05-31T01:57:20.561Z,94.30
2018-05-31T01:59:53.324Z,94.40
2018-05-31T02:02:25.842Z,94.40
2018-05-31T02:04:59.125Z,94.40
2018-05-31T02:07:31.544Z,94.30
2018-05-31T02:10:04.040Z,94.30
2018-05-31T02:12:36.722Z,94.30
2018-05-31T02:15:09.391Z,94.30
2018-05-31T02:17:42.013Z,94.30
2018-05-31T02:20:15.344Z,94.10
2018-05-31T02:22:47.664Z,94.00
2018-05-31T02:25:20.916Z,94.10
2018-05-31T02:27:53.458Z,94.10
2018-05-31T02:30:26.643Z,94.50
2018-05-31T02:32:59.174Z,94.20
2018-05-31T02:35:31.838Z,94.30
2018-05-31T02:38:04.968Z,94.20
2018-05-31T02:40:37.338Z,94.20
2018-05-31T02:43:09.763Z,94.10
2018-05-31T02:45:43.144Z,94.50
2018-05-31T02:48:16.343Z,94.70
2018-05-31T02:50:49.078Z,94.70
2018-05-31T02:53:21.787Z,94.60
2018-05-31T02:55:54.318Z,94.70
2018-05-31T02:58:26.702Z,94.70
2018-05-31T03:00:59.162Z,94.90
2018-05-31T03:03:39.029Z,94.80
2018-05-31T03:06:11.633Z,94.80
2018-05-31T03:08:44.929Z,94.70
2018-05-31T03:11:17.360Z,94.70
2018-05-31T03:13:50.006Z,94.60
2018-05-31T03:16:22.558Z,94.60
2018-05-31T03:18:55.808Z,94.40
2018-05-31T03:21:28.262Z,94.40
2018-05-31T03:24:00.754Z,94.40
2018-05-31T03:26:33.430Z,94.60
2018-05-31T03:29:06.690Z,94.80
2018-05-31T03:31:39.154Z,94.80
2018-05-31T03:34:11.805Z,94.80
2018-05-31T03:36:44.286Z,94.90
2018-05-31T03:39:16.819Z,94.90
2018-05-31T03:41:49.405Z,94.80
2018-05-31T03:44:22.055Z,94.80
2018-05-31T03:46:54.541Z,95.10
2018-05-31T03:49:26.878Z,94.70
2018-05-31T03:51:59.615Z,94.60
2018-05-31T03:54:32.291Z,94.50
2018-05-31T03:57:04.929Z,94.50
2018-05-31T03:59:38.076Z,94.50
2018-05-31T04:02:11.274Z,94.60
2018-05-31T04:04:43.599Z,94.60
2018-05-31T04:07:16.139Z,94.50
2018-05-31T04:09:49.488Z,94.60
2018-05-31T04:12:22.125Z,94.60
2018-05-31T04:14:54.619Z,94.60
2018-05-31T04:17:28.141Z,94.70
2018-05-31T04:20:00.822Z,95.00
2018-05-31T04:22:34.153Z,94.70
2018-05-31T04:25:06.608Z,94.70
2018-05-31T04:27:39.080Z,94.70
2018-05-31T04:30:11.548Z,94.70
2018-05-31T04:32:44.168Z,94.70
2018-05-31T04:35:16.569Z,94.70
2018-05-31T04:37:49.736Z,94.60
2018-05-31T04:40:22.298Z,94.60
2018-05-31T04:42:54.825Z,94.50
2018-05-31T04:45:27.455Z,94.50
2018-05-31T04:48:00.627Z,94.50
2018-05-31T04:50:33.058Z,94.40
2018-05-31T04:53:05.420Z,94.40
2018-05-31T04:55:37.797Z,94.30
2018-05-31T04:58:11.114Z,94.20
2018-05-31T05:00:45.408Z,94.20
2018-05-31T05:03:17.928Z,94.10
2018-05-31T05:05:50.523Z,94.10
2018-05-31T05:08:24.268Z,93.80
2018-05-31T05:10:56.663Z,93.80
2018-05-31T05:13:29.112Z,93.50
2018-05-31T05:16:01.486Z,93.30
2018-05-31T05:18:34.753Z,93.10
2018-05-31T05:21:08.254Z,93.00
2018-05-31T05:23:40.919Z,93.00
2018-05-31T05:26:13.341Z,93.20
2018-05-31T05:28:45.802Z,93.20
2018-05-31T05:31:18.497Z,93.20
2018-05-31T05:33:50.844Z,93.00
2018-05-31T05:36:24.724Z,92.40
2018-05-31T05:38:57.244Z,92.40
2018-05-31T05:41:29.660Z,91.90
2018-05-31T05:44:02.405Z,91.80
2018-05-31T05:46:35.808Z,91.50
2018-05-31T05:49:08.498Z,91.50
2018-05-31T05:51:41.003Z,91.50
2018-05-31T05:54:13.440Z,91.00
2018-05-31T05:56:45.920Z,90.70
2018-05-31T05:59:18.279Z,90.50
2018-05-31T06:01:50.904Z,90.80
2018-05-31T06:04:24.539Z,90.10
2018-05-31T06:06:57.146Z,90.10
2018-05-31T06:09:30.539Z,89.60
2018-05-31T06:12:04.172Z,89.70
2018-05-31T06:14:37.431Z,89.70
2018-05-31T06:17:15.164Z,89.50
2018-05-31T06:19:47.678Z,90.00
2018-05-31T06:22:20.973Z,89.40
2018-05-31T06:24:53.577Z,89.40
2018-05-31T06:27:26.790Z,88.40
2018-05-31T06:29:59.290Z,88.30
2018-05-31T06:32:31.889Z,86.60
2018-05-31T06:35:04.652Z,86.30
2018-05-31T06:37:37.916Z,85.90
2018-05-31T06:40:10.454Z,86.00
2018-05-31T06:42:43.446Z,86.10
2018-05-31T06:45:16.140Z,85.50
2018-05-31T06:47:48.825Z,85.00
2018-05-31T06:50:22.474Z,84.60
2018-05-31T06:52:55.070Z,84.60
2018-05-31T06:55:27.568Z,83.70
2018-05-31T06:58:00.869Z,83.10
2018-05-31T07:00:33.444Z,83.20
2018-05-31T07:03:05.915Z,82.70
2018-05-31T07:05:38.310Z,82.70
2018-05-31T07:08:10.782Z,82.10
2018-05-31T07:10:44.154Z,82.10
2018-05-31T07:13:17.596Z,81.50
2018-05-31T07:15:50.258Z,81.30
2018-05-31T07:18:22.831Z,78.20
2018-05-31T07:20:55.484Z,79.60
2018-05-31T07:23:29.424Z,77.10
2018-05-31T07:26:01.900Z,77.10
2018-05-31T07:28:35.274Z,76.80
2018-05-31T07:31:08.717Z,77.10
2018-05-31T07:33:41.311Z,77.10
2018-05-31T07:36:14.039Z,75.60
2018-05-31T07:38:46.737Z,75.20
2018-05-31T07:41:19.215Z,74.80
2018-05-31T07:43:52.095Z,74.60
2018-05-31T07:46:24.783Z,73.70
2018-05-31T07:48:57.438Z,72.70
2018-05-31T07:51:30.141Z,71.60
2018-05-31T07:54:02.911Z,71.60
2018-05-31T07:56:35.488Z,72.50
2018-05-31T07:59:08.614Z,73.60
2018-05-31T08:01:41.980Z,72.10
2018-05-31T08:04:15.144Z,71.40
2018-05-31T08:06:47.638Z,71.40
2018-05-31T08:09:20.433Z,70.90
2018-05-31T08:11:53.786Z,71.00
2018-05-31T08:14:26.279Z,70.90
2018-05-31T08:17:00.171Z,70.30
2018-05-31T08:19:33.556Z,71.40
2018-05-31T08:22:06.044Z,70.70
2018-05-31T08:24:38.746Z,69.80
2018-05-31T08:27:11.190Z,68.60
2018-05-31T08:29:43.901Z,65.60
2018-05-31T08:32:16.621Z,67.00
2018-05-31T08:34:49.176Z,67.80
2018-05-31T08:37:21.749Z,67.20
2018-05-31T08:39:54.410Z,66.50
2018-05-31T08:42:26.896Z,65.70
2018-05-31T08:44:59.402Z,62.80
2018-05-31T08:47:32.010Z,62.60
2018-05-31T08:50:12.484Z,61.50
2018-05-31T08:52:44.936Z,61.50
2018-05-31T08:55:18.137Z,60.50
2018-05-31T08:57:50.635Z,60.50
2018-05-31T09:00:23.449Z,60.40
2018-05-31T09:02:56.021Z,59.40
2018-05-31T09:05:29.522Z,58.30
2018-05-31T09:08:02.040Z,58.20
2018-05-31T09:10:35.491Z,58.50
2018-05-31T09:13:08.114Z,58.50
2018-05-31T09:15:41.405Z,58.60
2018-05-31T09:18:14.038Z,58.00
2018-05-31T09:20:46.719Z,57.30
2018-05-31T09:23:19.255Z,56.40
2018-05-31T09:25:51.734Z,56.70
2018-05-31T09:28:24.441Z,56.50
2018-05-31T09:30:57.161Z,57.00
2018-05-31T09:33:29.735Z,57.30
2018-05-31T09:36:02.404Z,57.50
2018-05-31T09:38:35.060Z,56.30
2018-05-31T09:41:07.441Z,56.50
2018-05-31T09:43:40.254Z,55.60
2018-05-31T09:46:12.739Z,54.80
2018-05-31T09:48:45.164Z,52.20
2018-05-31T09:51:17.746Z,52.90
2018-05-31T09:53:50.989Z,53.40
2018-05-31T09:56:24.468Z,54.40
2018-05-31T09:58:57.184Z,54.40
2018-05-31T10:01:30.344Z,56.20
2018-05-31T10:04:02.849Z,56.20
2018-05-31T10:06:35.611Z,55.10
2018-05-31T10:09:08.250Z,55.40
2018-05-31T10:11:40.894Z,55.40
2018-05-31T10:14:13.619Z,53.00
2018-05-31T10:16:46.315Z,52.50
2018-05-31T10:19:19.064Z,52.80
2018-05-31T10:21:51.629Z,52.60
2018-05-31T10:24:24.227Z,51.00
2018-05-31T10:26:56.840Z,51.90
2018-05-31T10:29:30.027Z,51.60
2018-05-31T10:32:02.472Z,51.60
2018-05-31T10:34:34.927Z,50.80
2018-05-31T10:37:07.591Z,51.30
2018-05-31T10:39:40.284Z,52.90
2018-05-31T10:42:13.559Z,52.90
2018-05-31T10:44:46.245Z,52.90
2018-05-31T10:47:18.996Z,52.10
2018-05-31T10:49:51.744Z,51.60
2018-05-31T10:52:24.410Z,52.20
2018-05-31T10:54:58.339Z,50.60
2018-05-31T10:57:31.740Z,52.10
2018-05-31T11:00:04.515Z,52.00
2018-05-31T11:02:36.946Z,50.90
2018-05-31T11:05:09.545Z,49.70
2018-05-31T11:07:42.151Z,48.80
2018-05-31T11:10:15.556Z,49.50
2018-05-31T11:12:48.961Z,48.10
2018-05-31T11:15:21.622Z,48.00
2018-05-31T11:17:54.288Z,46.70
2018-05-31T11:20:26.920Z,48.40
2018-05-31T11:23:00.194Z,49.90
2018-05-31T11:25:32.981Z,49.90
2018-05-31T11:28:06.412Z,49.30
2018-05-31T11:30:40.211Z,49.50
2018-05-31T11:33:12.962Z,49.50
2018-05-31T11:35:46.342Z,47.60
2018-05-31T11:38:18.978Z,47.60
2018-05-31T11:40:51.494Z,50.10
2018-05-31T11:43:24.149Z,49.10
2018-05-31T11:45:56.777Z,48.70
2018-05-31T11:48:29.411Z,49.00
2018-05-31T11:51:02.260Z,48.20
2018-05-31T11:53:34.771Z,47.00
2018-05-31T11:56:07.486Z,46.80
2018-05-31T11:58:40.196Z,46.90
2018-05-31T12:01:13.002Z,46.50
2018-05-31T12:03:45.595Z,46.70
2018-05-31T12:06:18.302Z,46.60
2018-05-31T12:08:50.940Z,47.60
2018-05-31T12:11:24.318Z,48.20
2018-05-31T12:13:57.461Z,48.10
2018-05-31T12:16:30.120Z,48.00
2018-05-31T12:19:02.771Z,49.70
2018-05-31T12:21:35.510Z,47.30
2018-05-31T12:24:08.164Z,48.40
2018-05-31T12:26:40.831Z,50.10
2018-05-31T12:29:13.313Z,49.00
2018-05-31T12:31:45.881Z,48.80
2018-05-31T12:34:18.545Z,49.80
2018-05-31T12:36:51.970Z,49.70
2018-05-31T12:39:24.479Z,49.70
2018-05-31T12:41:57.856Z,50.30
2018-05-31T12:44:31.337Z,51.60
2018-05-31T12:47:04.765Z,52.70
2018-05-31T12:49:37.366Z,52.70
2018-05-31T12:52:09.836Z,52.00
2018-05-31T12:54:42.725Z,49.90
2018-05-31T12:57:15.242Z,49.70
2018-05-31T12:59:47.866Z,49.80
2018-05-31T13:02:20.492Z,50.20
2018-05-31T13:04:53.821Z,49.60
2018-05-31T13:07:26.221Z,49.80
2018-05-31T13:09:58.617Z,50.00
2018-05-31T13:12:31.111Z,50.40
2018-05-31T13:15:03.860Z,48.30
2018-05-31T13:17:37.227Z,45.00
2018-05-31T13:20:09.964Z,44.90
2018-05-31T13:22:42.766Z,43.20
2018-05-31T13:25:15.973Z,40.70
2018-05-31T13:27:48.486Z,40.60
2018-05-31T13:30:21.206Z,39.80
2018-05-31T13:32:55.224Z,38.40
2018-05-31T13:35:27.775Z,38.40
2018-05-31T13:38:01.348Z,39.20
2018-05-31T13:40:33.880Z,39.10
2018-05-31T13:43:07.112Z,41.50
2018-05-31T13:45:39.723Z,41.50
2018-05-31T13:48:12.129Z,41.50
2018-05-31T13:50:45.884Z,42.80
2018-05-31T13:53:18.539Z,42.70
2018-05-31T13:55:51.165Z,43.10
2018-05-31T13:58:23.738Z,44.70
2018-05-31T14:00:57.006Z,46.00
2018-05-31T14:03:30.266Z,46.80
2018-05-31T14:06:02.874Z,46.80
2018-05-31T14:08:35.505Z,47.80
2018-05-31T14:11:09.036Z,46.60
2018-05-31T14:13:41.727Z,46.60
2018-05-31T14:16:14.250Z,47.00
2018-05-31T14:18:47.510Z,46.80
2018-05-31T14:21:20.175Z,46.70
2018-05-31T14:23:52.650Z,46.00
2018-05-31T14:26:25.316Z,47.80
2018-05-31T14:28:58.063Z,46.00
2018-05-31T14:31:30.661Z,45.50
2018-05-31T14:34:03.999Z,47.70
2018-05-31T14:36:36.576Z,47.70
2018-05-31T14:39:09.207Z,48.70
2018-05-31T14:41:41.886Z,48.90
2018-05-31T14:44:14.879Z,48.90
2018-05-31T14:46:48.121Z,48.50
2018-05-31T14:49:21.504Z,52.20
2018-05-31T14:51:54.931Z,54.00
2018-05-31T14:54:27.700Z,54.00
2018-05-31T14:57:00.266Z,55.00
2018-05-31T14:59:33.201Z,57.50
2018-05-31T15:02:05.655Z,59.20
2018-05-31T15:04:38.146Z,60.00
2018-05-31T15:07:11.861Z,60.70
2018-05-31T15:09:45.142Z,61.90
2018-05-31T15:12:18.371Z,62.20
2018-05-31T15:14:51.257Z,62.10
2018-05-31T15:17:23.838Z,62.10
2018-05-31T15:19:56.561Z,61.00
2018-05-31T15:22:29.113Z,61.80
2018-05-31T15:25:01.844Z,60.60
2018-05-31T15:27:34.617Z,61.20
2018-05-31T15:30:08.132Z,61.30
2018-05-31T15:32:40.733Z,61.30
2018-05-31T15:35:13.527Z,61.30
2018-05-31T15:37:46.196Z,62.20
2018-05-31T15:40:18.681Z,62.40
2018-05-31T15:42:54.587Z,60.60
2018-05-31T15:45:27.264Z,60.50
2018-05-31T15:48:00.431Z,58.80
2018-05-31T15:50:32.981Z,58.70
2018-05-31T15:53:05.541Z,58.50
2018-05-31T15:55:38.857Z,53.90
2018-05-31T15:58:11.437Z,53.90
2018-05-31T16:00:44.138Z,54.30
2018-05-31T16:03:16.663Z,54.20
2018-05-31T16:05:49.662Z,55.00
2018-05-31T16:08:22.242Z,54.70
2018-05-31T16:10:55.063Z,54.90
2018-05-31T16:13:27.552Z,56.30
2018-05-31T16:16:00.272Z,56.30
2018-05-31T16:18:33.011Z,57.60
2018-05-31T16:21:05.570Z,58.10
2018-05-31T16:23:38.230Z,58.50
2018-05-31T16:26:11.076Z,58.30
2018-05-31T16:28:44.447Z,58.80
2018-05-31T16:31:17.042Z,58.90
2018-05-31T16:33:49.786Z,59.50
2018-05-31T16:36:22.379Z,59.50
2018-05-31T16:38:56.633Z,60.40
2018-05-31T16:41:29.222Z,60.00
2018-05-31T16:44:01.926Z,60.00
2018-05-31T16:46:34.516Z,61.20
2018-05-31T16:49:07.116Z,61.80
2018-05-31T16:51:39.881Z,61.80
2018-05-31T16:54:12.602Z,62.20
2018-05-31T16:56:45.260Z,62.00
2018-05-31T16:59:18.067Z,62.70
2018-05-31T17:01:50.681Z,63.60
2018-05-31T17:04:23.224Z,63.90
2018-05-31T17:06:55.923Z,64.50
2018-05-31T17:09:28.535Z,66.70
2018-05-31T17:12:01.248Z,67.80
2018-05-31T17:14:33.891Z,69.00
2018-05-31T17:17:06.529Z,69.80
2018-05-31T17:19:39.216Z,71.20
2018-05-31T17:22:11.895Z,73.10
2018-05-31T17:24:44.612Z,72.90
2018-05-31T17:27:17.354Z,73.80
2018-05-31T17:29:50.226Z,75.20
2018-05-31T17:32:23.224Z,75.70
2018-05-31T17:34:56.651Z,76.00
2018-05-31T17:37:29.864Z,75.70
2018-05-31T17:40:02.644Z,75.70
2018-05-31T17:42:35.073Z,76.60
2018-05-31T17:45:07.960Z,77.40
2018-05-31T17:47:40.695Z,76.60
2018-05-31T17:50:14.141Z,73.80
2018-05-31T17:52:46.673Z,73.80
2018-05-31T17:55:19.999Z,73.20
2018-05-31T17:57:52.511Z,73.20
2018-05-31T18:00:25.703Z,74.90
2018-05-31T18:03:00.096Z,75.20
2018-05-31T18:05:32.707Z,75.20
2018-05-31T18:08:06.081Z,73.70
2018-05-31T18:10:39.291Z,72.50
2018-05-31T18:13:12.066Z,72.40
2018-05-31T18:15:50.762Z,73.10
2018-05-31T18:18:23.665Z,73.10
2018-05-31T18:20:58.263Z,73.10
2018-05-31T18:23:30.710Z,73.20
2018-05-31T18:26:08.842Z,73.30
2018-05-31T18:28:42.131Z,73.70
2018-05-31T18:31:14.861Z,73.70
2018-05-31T18:33:48.097Z,73.80
2018-05-31T18:36:21.720Z,74.40
2018-05-31T18:38:54.791Z,74.60
2018-05-31T18:41:27.697Z,74.60
2018-05-31T18:44:00.877Z,75.70
2018-05-31T18:46:33.501Z,76.80
2018-05-31T18:49:06.258Z,77.30
2018-05-31T18:51:38.737Z,77.80
2018-05-31T18:54:12.299Z,78.00
2018-05-31T18:56:45.527Z,78.00
2018-05-31T18:59:18.231Z,78.10
2018-05-31T19:01:50.981Z,79.30
2018-05-31T19:04:23.597Z,80.00
2018-05-31T19:06:56.661Z,80.90
2018-05-31T19:09:36.211Z,81.40
2018-05-31T19:12:10.123Z,82.70
2018-05-31T19:14:43.225Z,82.00
2018-05-31T19:17:15.785Z,82.40
2018-05-31T19:19:54.473Z,82.70
2018-05-31T19:22:28.256Z,84.60
2018-05-31T19:25:07.021Z,84.60
2018-05-31T19:27:39.996Z,85.40
2018-05-31T19:30:19.228Z,85.30
2018-05-31T19:32:53.655Z,85.40
2018-05-31T19:35:33.972Z,85.70
2018-05-31T19:38:06.602Z,85.70
2018-05-31T19:40:39.469Z,86.20
2018-05-31T19:43:17.905Z,86.70
2018-05-31T19:45:51.842Z,87.10
2018-05-31T19:48:25.302Z,87.50
2018-05-31T19:50:58.580Z,87.60
2018-05-31T19:53:37.160Z,87.60
2018-05-31T19:56:10.443Z,87.80
2018-05-31T19:58:49.318Z,87.80
2018-05-31T20:01:27.765Z,88.40
2018-05-31T20:04:00.251Z,88.90
2018-05-31T20:06:33.137Z,89.20
2018-05-31T20:09:05.777Z,89.90
2018-05-31T20:11:39.345Z,90.10
2018-05-31T20:14:11.836Z,90.10
2018-05-31T20:16:44.285Z,90.10
2018-05-31T20:19:17.036Z,90.10
2018-05-31T20:21:49.871Z,90.00
2018-05-31T20:24:22.413Z,90.10
2018-05-31T20:26:55.202Z,90.20
2018-05-31T20:29:27.843Z,90.30
2018-05-31T20:32:00.571Z,90.30
2018-05-31T20:34:33.202Z,90.40
2018-05-31T20:37:06.824Z,90.40
2018-05-31T20:39:39.280Z,90.50
2018-05-31T20:42:12.759Z,90.70
2018-05-31T20:44:45.551Z,90.70
2018-05-31T20:47:18.287Z,90.70
2018-05-31T20:49:50.937Z,90.70
2018-05-31T20:52:23.709Z,90.70
2018-05-31T20:54:56.524Z,90.70
2018-05-31T20:57:29.859Z,91.00
2018-05-31T21:00:02.755Z,90.90
2018-05-31T21:02:35.580Z,91.00
2018-05-31T21:05:08.416Z,91.00
2018-05-31T21:07:41.058Z,91.00
2018-05-31T21:10:13.922Z,91.10
2018-05-31T21:12:47.596Z,91.10
2018-05-31T21:15:20.546Z,91.10
2018-05-31T21:17:53.263Z,91.00
2018-05-31T21:20:25.961Z,91.00
2018-05-31T21:22:58.637Z,91.00
2018-05-31T21:25:31.216Z,91.00
2018-05-31T21:28:03.967Z,91.10
2018-05-31T21:30:36.649Z,91.10
2018-05-31T21:33:09.328Z,91.20
2018-05-31T21:35:42.252Z,91.20
2018-05-31T21:38:14.661Z,91.20
2018-05-31T21:40:47.472Z,91.20
2018-05-31T21:43:20.251Z,91.20
2018-05-31T21:45:52.852Z,91.20
2018-05-31T21:48:25.502Z,91.40
2018-05-31T21:50:58.472Z,91.70
2018-05-31T21:53:30.955Z,91.70
2018-05-31T21:56:04.298Z,91.90
2018-05-31T21:58:37.040Z,91.90
2018-05-31T22:01:10.355Z,92.10
2018-05-31T22:03:43.221Z,92.10
2018-05-31T22:06:15.866Z,92.20
2018-05-31T22:08:48.684Z,92.10
2018-05-31T22:11:21.198Z,92.00
2018-05-31T22:13:53.850Z,92.00
2018-05-31T22:16:26.416Z,91.90
2018-05-31T22:19:00.131Z,92.00
2018-05-31T22:21:33.531Z,92.00
2018-05-31T22:24:06.535Z,92.00
2018-05-31T22:26:39.074Z,92.00
2018-05-31T22:29:11.491Z,92.20
2018-05-31T22:31:44.227Z,92.30
2018-05-31T22:34:17.016Z,92.40
2018-05-31T22:36:49.562Z,92.60
2018-05-31T22:39:22.138Z,92.80
2018-05-31T22:41:54.823Z,92.90
2018-05-31T22:44:27.495Z,93.00
2018-05-31T22:47:00.030Z,93.10
2018-05-31T22:49:32.558Z,93.10
2018-05-31T22:52:05.096Z,93.10
2018-05-31T22:54:37.841Z,93.10
2018-05-31T22:57:10.718Z,93.10
2018-05-31T22:59:43.274Z,93.10
2018-05-31T23:02:15.911Z,93.00
2018-05-31T23:04:48.647Z,92.90
2018-05-31T23:07:21.511Z,92.90
2018-05-31T23:09:54.117Z,92.90
2018-05-31T23:12:31.992Z,92.90
2018-05-31T23:15:05.262Z,92.90
2018-05-31T23:17:37.805Z,92.90
2018-05-31T23:20:10.757Z,93.00
2018-05-31T23:22:44.064Z,93.00
2018-05-31T23:25:16.723Z,93.00
2018-05-31T23:27:50.248Z,93.10
2018-05-31T23:30:22.793Z,93.10
2018-05-31T23:32:55.277Z,93.20
2018-05-31T23:35:28.031Z,93.20
2018-05-31T23:38:01.385Z,93.20
2018-05-31T23:40:33.930Z,93.20
2018-05-31T23:43:06.600Z,93.20
2018-05-31T23:45:39.199Z,93.20
2018-05-31T23:48:11.906Z,93.10
2018-05-31T23:50:44.536Z,93.10
2018-05-31T23:53:17.747Z,93.10
2018-05-31T23:55:51.455Z,93.10
2018-05-31T23:58:24.020Z,93.10
